createdAt,value
2019-06-07T00:00:50.080Z,0
2019-06-07T00:01:49.731Z,0
2019-06-07T00:02:49.764Z,0
2019-06-07T00:03:49.732Z,0
2019-06-07T00:04:49.667Z,0
2019-06-07T00:05:49.671Z,0
2019-06-07T00:06:49.405Z,0
2019-06-07T00:07:49.615Z,0
2019-06-07T00:08:49.580Z,0
2019-06-07T00:09:49.562Z,0
2019-06-07T00:10:49.539Z,0
2019-06-07T00:11:49.542Z,0
2019-06-07T00:12:49.501Z,0
2019-06-07T00:13:49.479Z,0
2019-06-07T00:14:49.445Z,0
2019-06-07T00:15:49.443Z,0
2019-06-07T00:16:49.402Z,0
2019-06-07T00:17:49.478Z,0
2019-06-07T00:18:49.359Z,0
2019-06-07T00:19:49.305Z,0
2019-06-07T00:20:48.833Z,0
2019-06-07T00:22:36.301Z,0
2019-06-07T00:22:49.255Z,0
2019-06-07T00:23:49.249Z,0
2019-06-07T00:24:49.268Z,0
2019-06-07T00:25:49.202Z,0
2019-06-07T00:27:05.225Z,0
2019-06-07T00:27:49.168Z,0
2019-06-07T00:28:49.159Z,0
2019-06-07T00:29:48.902Z,0
2019-06-07T00:30:58.316Z,0
2019-06-07T00:31:49.071Z,0
2019-06-07T00:32:49.047Z,0
2019-06-07T00:33:49.030Z,0
2019-06-07T00:34:48.993Z,0
2019-06-07T00:35:48.973Z,0
2019-06-07T00:36:48.947Z,0
2019-06-07T00:37:48.925Z,0
2019-06-07T00:38:48.904Z,0
2019-06-07T00:40:17.688Z,0
2019-06-07T00:40:48.886Z,0
2019-06-07T00:41:48.837Z,0
2019-06-07T00:42:48.816Z,0
2019-06-07T00:43:48.798Z,0
2019-06-07T00:44:48.796Z,0
2019-06-07T00:45:48.764Z,0
2019-06-07T00:46:48.485Z,0
2019-06-07T00:47:48.710Z,0
2019-06-07T00:48:48.683Z,0
2019-06-07T00:49:48.636Z,0
2019-06-07T00:50:48.637Z,0
2019-06-07T00:51:58.689Z,0
2019-06-07T00:53:35.015Z,0
2019-06-07T00:53:48.357Z,0
2019-06-07T00:54:48.782Z,0
2019-06-07T00:55:48.529Z,0
2019-06-07T00:56:48.530Z,0
2019-06-07T00:57:48.544Z,0
2019-06-07T00:59:06.949Z,0
2019-06-07T00:59:48.430Z,0
2019-06-07T01:00:48.413Z,0
2019-06-07T01:01:48.558Z,0
2019-06-07T01:02:48.385Z,0
2019-06-07T01:03:48.346Z,0
2019-06-07T01:04:48.162Z,0
2019-06-07T01:05:48.313Z,0
2019-06-07T01:06:48.277Z,0
2019-06-07T01:07:48.027Z,0
2019-06-07T01:08:48.225Z,0
2019-06-07T01:09:48.230Z,0
2019-06-07T01:11:00.145Z,0
2019-06-07T01:11:48.178Z,0
2019-06-07T01:12:48.136Z,0
2019-06-07T01:13:48.116Z,0
2019-06-07T01:14:48.362Z,0
2019-06-07T01:15:48.075Z,0
2019-06-07T01:18:25.800Z,0
2019-06-07T01:18:56.111Z,0
2019-06-07T01:19:48.393Z,0
2019-06-07T01:20:48.421Z,0
2019-06-07T01:21:48.372Z,0
2019-06-07T01:22:48.328Z,0
2019-06-07T01:24:17.952Z,0
2019-06-07T01:24:48.282Z,0
2019-06-07T01:25:48.254Z,0
2019-06-07T01:26:48.229Z,0
2019-06-07T01:27:48.220Z,0
2019-06-07T01:28:48.215Z,0
2019-06-07T01:29:48.167Z,0
2019-06-07T01:30:48.148Z,0
2019-06-07T01:31:49.000Z,0
2019-06-07T01:32:48.092Z,0
2019-06-07T01:33:57.996Z,0
2019-06-07T01:34:48.065Z,0
2019-06-07T01:35:48.053Z,0
2019-06-07T01:36:48.005Z,0
2019-06-07T01:37:47.970Z,0
2019-06-07T01:38:47.961Z,0
2019-06-07T01:39:47.941Z,0
2019-06-07T01:40:47.910Z,0
2019-06-07T01:41:47.964Z,0
2019-06-07T01:42:47.869Z,0
2019-06-07T01:43:47.840Z,0
2019-06-07T01:44:47.814Z,0
2019-06-07T01:45:47.805Z,0
2019-06-07T01:46:47.785Z,0
2019-06-07T01:47:47.516Z,0
2019-06-07T01:48:56.727Z,0
2019-06-07T01:49:47.706Z,0
2019-06-07T01:50:47.672Z,0
2019-06-07T01:51:47.661Z,0
2019-06-07T01:52:47.644Z,0
2019-06-07T01:53:47.612Z,0
2019-06-07T01:55:04.049Z,0
2019-06-07T01:55:47.409Z,0
2019-06-07T01:56:47.566Z,0
2019-06-07T01:57:55.384Z,0
2019-06-07T01:58:47.532Z,0
2019-06-07T01:59:47.386Z,0
2019-06-07T02:00:49.088Z,0
2019-06-07T02:01:47.435Z,0
2019-06-07T02:02:47.414Z,0
2019-06-07T02:03:47.389Z,0
2019-06-07T02:04:48.069Z,0
2019-06-07T02:05:47.103Z,0
2019-06-07T02:06:47.319Z,0
2019-06-07T02:07:47.293Z,0
2019-06-07T02:08:47.264Z,0
2019-06-07T02:09:47.248Z,0
2019-06-07T02:10:46.992Z,0
2019-06-07T02:11:47.203Z,0
2019-06-07T02:12:50.653Z,0
2019-06-07T02:13:47.151Z,0
2019-06-07T02:14:47.190Z,0
2019-06-07T02:15:46.876Z,0
2019-06-07T02:16:47.117Z,0
2019-06-07T02:17:47.067Z,0
2019-06-07T02:19:08.750Z,0
2019-06-07T02:19:47.014Z,0
2019-06-07T02:20:47.010Z,0
2019-06-07T02:21:46.986Z,0
2019-06-07T02:22:46.941Z,0
2019-06-07T02:23:46.923Z,0
2019-06-07T02:25:27.677Z,0
2019-06-07T02:25:57.781Z,0
2019-06-07T02:26:55.829Z,4
2019-06-07T02:28:38.216Z,4
2019-06-07T02:28:55.758Z,4
2019-06-07T02:29:55.775Z,4
2019-06-07T02:31:06.704Z,0
2019-06-07T02:31:55.697Z,4
2019-06-07T02:32:55.686Z,4
2019-06-07T02:33:55.648Z,4
2019-06-07T02:34:55.625Z,8
2019-06-07T02:35:55.615Z,4
2019-06-07T02:36:55.596Z,4
2019-06-07T02:37:55.568Z,8
2019-06-07T02:38:55.543Z,8
2019-06-07T02:39:55.522Z,8
2019-06-07T02:40:55.507Z,8
2019-06-07T02:41:55.486Z,12
2019-06-07T02:42:55.457Z,12
2019-06-07T02:43:55.198Z,16
2019-06-07T02:44:55.430Z,16
2019-06-07T02:45:55.374Z,16
2019-06-07T02:46:57.135Z,20
2019-06-07T02:47:55.323Z,24
2019-06-07T02:48:55.317Z,24
2019-06-07T02:49:55.041Z,28
2019-06-07T02:50:55.250Z,32
2019-06-07T02:51:55.239Z,36
2019-06-07T02:52:56.185Z,40
2019-06-07T02:53:55.185Z,48
2019-06-07T02:54:55.161Z,52
2019-06-07T02:57:01.545Z,68
2019-06-07T02:57:11.330Z,68
2019-06-07T02:58:11.289Z,72
2019-06-07T02:59:11.286Z,84
2019-06-07T03:01:11.500Z,104
2019-06-07T03:01:21.280Z,104
2019-06-07T03:02:21.238Z,116
2019-06-07T03:03:22.211Z,128
2019-06-07T03:04:21.930Z,144
2019-06-07T03:05:21.162Z,160
2019-06-07T03:06:21.135Z,176
2019-06-07T03:07:21.120Z,192
2019-06-07T03:08:21.104Z,212
2019-06-07T03:09:21.073Z,232
2019-06-07T03:10:21.090Z,256
2019-06-07T03:11:21.025Z,276
2019-06-07T03:12:20.759Z,300
2019-06-07T03:13:20.758Z,328
2019-06-07T03:14:20.954Z,360
2019-06-07T03:15:52.767Z,404
2019-06-07T03:16:20.900Z,416
2019-06-07T03:17:20.872Z,452
2019-06-07T03:18:20.884Z,488
2019-06-07T03:19:20.838Z,528
2019-06-07T03:20:20.823Z,568
2019-06-07T03:21:20.779Z,612
2019-06-07T03:22:20.764Z,660
2019-06-07T03:23:20.772Z,712
2019-06-07T03:24:20.707Z,768
2019-06-07T03:25:20.695Z,824
2019-06-07T03:26:20.678Z,884
2019-06-07T03:27:55.356Z,980
2019-06-07T03:28:20.649Z,1000
2019-06-07T03:29:20.599Z,1056
2019-06-07T03:31:06.140Z,1144
2019-06-07T03:31:20.565Z,1156
2019-06-07T03:32:20.396Z,1204
2019-06-07T03:33:20.286Z,1256
2019-06-07T03:34:20.490Z,1316
2019-06-07T03:35:20.217Z,1384
2019-06-07T03:36:32.697Z,1472
2019-06-07T03:37:20.431Z,1532
2019-06-07T03:38:20.386Z,1600
2019-06-07T03:39:20.437Z,1672
2019-06-07T03:40:20.339Z,1744
2019-06-07T03:41:20.320Z,1812
2019-06-07T03:42:20.297Z,1876
2019-06-07T03:43:20.290Z,1936
2019-06-07T03:44:20.258Z,1996
2019-06-07T03:45:20.017Z,2056
2019-06-07T03:46:20.201Z,2112
2019-06-07T03:47:20.186Z,2168
2019-06-07T03:48:20.183Z,2228
2019-06-07T03:49:20.139Z,2292
2019-06-07T03:50:19.639Z,2356
2019-06-07T03:51:39.590Z,2440
2019-06-07T03:52:20.071Z,2488
2019-06-07T03:53:20.099Z,2548
2019-06-07T03:54:20.034Z,2612
2019-06-07T03:55:20.029Z,2676
2019-06-07T03:56:21.238Z,2732
2019-06-07T03:57:19.957Z,2788
2019-06-07T03:58:54.503Z,2876
2019-06-07T03:59:19.900Z,2896
2019-06-07T04:00:19.449Z,2940
2019-06-07T04:01:19.863Z,2988
2019-06-07T04:02:19.862Z,3032
2019-06-07T04:03:54.261Z,3096
2019-06-07T04:04:19.808Z,3108
2019-06-07T04:05:19.543Z,3144
2019-06-07T04:06:19.761Z,3184
2019-06-07T04:07:19.488Z,3228
2019-06-07T04:08:19.706Z,3280
2019-06-07T04:09:19.693Z,3332
2019-06-07T04:10:19.479Z,3376
2019-06-07T04:11:19.646Z,3440
2019-06-07T04:12:19.609Z,3508
2019-06-07T04:13:19.598Z,3584
2019-06-07T04:14:19.634Z,3648
2019-06-07T04:15:19.552Z,3696
2019-06-07T04:16:19.530Z,3724
2019-06-07T04:17:19.513Z,3780
2019-06-07T04:18:19.487Z,3844
2019-06-07T04:19:19.459Z,3908
2019-06-07T04:20:19.497Z,3948
2019-06-07T04:21:19.426Z,3988
2019-06-07T04:22:19.185Z,4068
2019-06-07T04:23:47.444Z,4252
2019-06-07T04:24:19.349Z,4324
2019-06-07T04:25:19.324Z,4424
2019-06-07T04:26:19.373Z,4488
2019-06-07T04:27:19.038Z,4544
2019-06-07T04:28:19.261Z,4592
2019-06-07T04:30:11.210Z,4676
2019-06-07T04:30:21.009Z,4680
2019-06-07T04:31:22.195Z,4700
2019-06-07T04:32:20.927Z,4732
2019-06-07T04:33:20.891Z,4748
2019-06-07T04:34:20.867Z,4740
2019-06-07T04:35:21.082Z,4724
2019-06-07T04:36:56.215Z,4740
2019-06-07T04:37:20.806Z,4744
2019-06-07T04:38:20.773Z,4756
2019-06-07T04:39:20.825Z,4780
2019-06-07T04:40:20.534Z,4836
2019-06-07T04:41:20.704Z,4884
2019-06-07T04:42:20.678Z,4924
2019-06-07T04:43:20.677Z,4964
2019-06-07T04:44:20.640Z,4992
2019-06-07T04:45:53.214Z,5052
2019-06-07T04:46:20.595Z,5068
2019-06-07T04:47:20.586Z,5092
2019-06-07T04:48:20.563Z,5112
2019-06-07T04:49:20.536Z,5140
2019-06-07T04:50:20.334Z,5192
2019-06-07T04:51:21.235Z,5280
2019-06-07T04:52:20.457Z,5400
2019-06-07T04:53:20.482Z,5536
2019-06-07T04:54:20.215Z,5668
2019-06-07T04:55:20.161Z,5776
2019-06-07T04:56:20.397Z,5908
2019-06-07T04:57:20.413Z,6036
2019-06-07T04:58:20.422Z,6140
2019-06-07T05:00:53.066Z,6332
2019-06-07T05:01:34.785Z,6384
2019-06-07T05:02:10.948Z,6316
2019-06-07T05:03:10.941Z,6540
2019-06-07T05:04:10.916Z,6756
2019-06-07T05:05:10.881Z,6948
2019-06-07T05:06:11.273Z,7156
2019-06-07T05:07:11.286Z,7368
2019-06-07T05:08:36.052Z,7560
2019-06-07T05:09:10.820Z,7660
2019-06-07T05:10:10.790Z,7856
2019-06-07T05:11:11.037Z,7996
2019-06-07T05:12:10.741Z,8180
2019-06-07T05:13:11.266Z,8468
2019-06-07T05:14:10.762Z,8772
2019-06-07T05:15:10.670Z,9052
2019-06-07T05:16:10.664Z,9368
2019-06-07T05:17:10.698Z,9600
2019-06-07T05:18:10.606Z,9844
2019-06-07T05:19:10.600Z,10072
2019-06-07T05:20:11.756Z,10224
2019-06-07T05:21:10.557Z,10424
2019-06-07T05:22:12.370Z,10500
2019-06-07T05:23:10.555Z,10632
2019-06-07T05:24:16.699Z,11416
2019-06-07T05:25:10.460Z,12600
2019-06-07T05:26:10.458Z,13608
2019-06-07T05:27:10.745Z,13068
2019-06-07T05:28:10.398Z,11820
2019-06-07T05:29:10.382Z,11020
2019-06-07T05:31:10.638Z,12852
2019-06-07T05:31:20.402Z,12928
2019-06-07T05:32:20.390Z,13184
2019-06-07T05:33:20.356Z,11812
2019-06-07T05:34:20.335Z,11900
2019-06-07T05:35:20.570Z,11020
2019-06-07T05:36:20.336Z,10268
2019-06-07T05:37:20.362Z,9888
2019-06-07T05:38:20.284Z,10508
2019-06-07T05:39:20.242Z,11680
2019-06-07T05:40:21.368Z,12012
2019-06-07T05:41:20.213Z,11832
2019-06-07T05:42:20.187Z,10416
2019-06-07T05:43:20.169Z,10500
2019-06-07T05:44:22.143Z,9800
2019-06-07T05:45:20.138Z,10804
2019-06-07T05:46:20.160Z,10624
2019-06-07T05:47:20.153Z,10444
2019-06-07T05:48:20.269Z,10548
2019-06-07T05:49:20.049Z,10488
2019-06-07T05:51:00.516Z,10224
2019-06-07T05:51:20.034Z,10192
2019-06-07T05:52:20.013Z,10108
2019-06-07T05:53:19.985Z,10080
2019-06-07T05:54:19.973Z,10020
2019-06-07T05:55:19.464Z,9916
2019-06-07T05:56:21.400Z,9792
2019-06-07T05:57:19.914Z,9700
2019-06-07T05:58:19.909Z,9604
2019-06-07T05:59:19.877Z,9552
2019-06-07T06:00:19.616Z,9528
2019-06-07T06:02:22.423Z,9544
2019-06-07T06:02:38.526Z,9556
2019-06-07T06:03:34.965Z,9612
2019-06-07T06:04:33.789Z,9644
2019-06-07T06:05:57.379Z,9704
2019-06-07T06:06:33.889Z,9736
2019-06-07T06:07:34.715Z,9804
2019-06-07T06:08:36.074Z,9884
2019-06-07T06:09:34.776Z,9916
2019-06-07T06:10:32.298Z,9988
2019-06-07T06:12:04.932Z,10072
2019-06-07T06:12:54.688Z,10164
2019-06-07T06:13:32.497Z,10372
2019-06-07T06:14:32.465Z,10752
2019-06-07T06:16:05.270Z,11324
2019-06-07T06:16:32.428Z,11528
2019-06-07T06:17:32.416Z,12132
2019-06-07T06:18:32.434Z,13116
2019-06-07T06:19:32.390Z,15116
2019-06-07T06:21:21.709Z,18336
2019-06-07T06:21:32.372Z,18464
2019-06-07T06:22:32.370Z,19296
2019-06-07T06:23:32.324Z,19904
2019-06-07T06:24:32.085Z,20288
2019-06-07T06:25:57.802Z,20160
2019-06-07T06:26:32.289Z,21088
2019-06-07T06:28:18.355Z,21728
2019-06-07T06:28:32.247Z,21856
2019-06-07T06:29:32.230Z,22144
2019-06-07T06:30:32.244Z,22432
2019-06-07T06:31:32.220Z,22848
2019-06-07T06:33:02.808Z,23168
2019-06-07T06:33:43.340Z,23680
2019-06-07T06:34:31.931Z,22432
2019-06-07T06:35:32.168Z,24256
2019-06-07T06:36:32.192Z,24960
2019-06-07T06:37:32.168Z,24896
2019-06-07T06:38:32.129Z,25728
2019-06-07T06:39:32.106Z,25024
2019-06-07T06:40:32.090Z,22656
2019-06-07T06:41:46.039Z,25568
2019-06-07T06:42:32.052Z,23392
2019-06-07T06:43:32.093Z,26080
2019-06-07T06:44:32.691Z,27264
2019-06-07T06:45:33.778Z,27936
2019-06-07T06:46:59.905Z,27136
2019-06-07T06:47:31.939Z,28288
2019-06-07T06:48:31.997Z,25792
2019-06-07T06:49:32.102Z,25312
2019-06-07T06:50:32.709Z,26976
2019-06-07T06:51:32.189Z,26240
2019-06-07T06:52:32.139Z,24160
2019-06-07T06:53:33.744Z,29344
2019-06-07T06:55:03.423Z,22208
2019-06-07T06:55:31.889Z,25824
2019-06-07T06:56:32.005Z,27520
2019-06-07T06:57:32.649Z,25632
2019-06-07T06:59:12.818Z,28096
2019-06-07T06:59:55.596Z,26528
2019-06-07T07:01:10.374Z,29888
2019-06-07T07:01:52.628Z,28320
2019-06-07T07:04:15.962Z,31744
2019-06-07T07:04:25.919Z,32064
2019-06-07T07:05:25.728Z,29792
2019-06-07T07:06:33.365Z,30304
2019-06-07T07:07:25.731Z,24576
2019-06-07T07:08:25.700Z,23552
2019-06-07T07:09:25.691Z,21760
2019-06-07T07:10:26.360Z,26720
2019-06-07T07:11:30.708Z,29536
2019-06-07T07:12:25.392Z,32864
2019-06-07T07:13:25.957Z,22976
2019-06-07T07:14:25.626Z,24768
2019-06-07T07:15:25.609Z,26048
2019-06-07T07:16:26.457Z,25824
2019-06-07T07:18:08.671Z,24736
2019-06-07T07:18:25.595Z,22432
2019-06-07T07:19:25.583Z,26688
2019-06-07T07:20:25.752Z,29312
2019-06-07T07:21:25.543Z,31264
2019-06-07T07:22:25.647Z,30560
2019-06-07T07:23:25.606Z,30240
2019-06-07T07:24:29.035Z,32000
2019-06-07T07:25:25.473Z,36928
2019-06-07T07:26:25.497Z,39680
2019-06-07T07:27:27.815Z,30720
2019-06-07T07:28:25.921Z,32288
2019-06-07T07:29:25.582Z,35296
2019-06-07T07:30:57.337Z,40160
2019-06-07T07:31:25.406Z,37888
2019-06-07T07:32:26.848Z,40960
2019-06-07T07:33:25.379Z,42784
2019-06-07T07:34:45.954Z,44224
2019-06-07T07:35:28.181Z,43008
2019-06-07T07:36:52.838Z,40832
2019-06-07T07:37:28.677Z,45920
2019-06-07T07:38:29.861Z,46432
2019-06-07T07:39:30.145Z,44608
2019-06-07T07:41:19.097Z,43040
2019-06-07T07:41:29.421Z,41760
2019-06-07T07:42:29.039Z,40480
2019-06-07T07:43:28.855Z,40512
2019-06-07T07:44:28.758Z,37568
2019-06-07T07:45:28.498Z,39936
2019-06-07T07:46:37.902Z,45600
2019-06-07T07:47:28.717Z,45184
2019-06-07T07:48:28.704Z,49504
2019-06-07T07:49:28.733Z,46784
2019-06-07T07:50:28.645Z,44800
2019-06-07T07:51:29.364Z,36576
2019-06-07T07:52:28.670Z,44320
2019-06-07T07:54:00.508Z,48832
2019-06-07T07:54:29.695Z,45056
2019-06-07T07:55:29.349Z,50880
2019-06-07T07:56:29.375Z,40384
2019-06-07T07:57:28.636Z,45984
2019-06-07T07:58:28.611Z,50752
2019-06-07T08:00:59.968Z,52928
2019-06-07T08:01:18.683Z,40160
2019-06-07T08:02:18.742Z,51488
2019-06-07T08:03:18.688Z,53408
2019-06-07T08:04:24.367Z,53472
2019-06-07T08:05:51.916Z,48448
2019-06-07T08:06:29.053Z,49344
2019-06-07T08:07:28.236Z,42368
2019-06-07T08:08:27.986Z,48320
2019-06-07T08:09:28.070Z,41632
2019-06-07T08:10:28.564Z,38592
2019-06-07T08:11:27.733Z,47968
2019-06-07T08:12:28.021Z,53760
2019-06-07T08:13:33.678Z,47648
2019-06-07T08:14:27.902Z,46016
2019-06-07T08:15:27.426Z,54944
2019-06-07T08:16:27.959Z,55584
2019-06-07T08:17:27.874Z,55904
2019-06-07T08:18:27.866Z,57760
2019-06-07T08:19:27.852Z,57632
2019-06-07T08:20:27.358Z,57920
2019-06-07T08:21:33.393Z,56960
2019-06-07T08:22:27.841Z,57792
2019-06-07T08:23:27.584Z,56448
2019-06-07T08:24:27.814Z,55968
2019-06-07T08:25:27.555Z,59072
2019-06-07T08:26:27.909Z,59136
2019-06-07T08:27:33.867Z,59776
2019-06-07T08:28:27.869Z,57088
2019-06-07T08:29:43.744Z,59168
2019-06-07T08:31:10.624Z,58368
2019-06-07T08:31:28.340Z,60096
2019-06-07T08:32:29.097Z,60896
2019-06-07T08:33:35.689Z,60704
2019-06-07T08:34:27.756Z,60896
2019-06-07T08:36:43.175Z,61824
2019-06-07T08:37:01.902Z,62112
2019-06-07T08:39:07.451Z,61440
2019-06-07T08:39:17.421Z,61376
2019-06-07T08:40:17.170Z,60640
2019-06-07T08:41:19.739Z,62464
2019-06-07T08:43:20.510Z,62848
2019-06-07T08:43:30.760Z,63200
2019-06-07T08:44:32.542Z,63072
2019-06-07T08:45:30.765Z,63552
2019-06-07T08:46:31.326Z,64192
2019-06-07T08:47:30.705Z,64576
2019-06-07T08:48:35.326Z,63520
2019-06-07T08:49:30.441Z,63328
2019-06-07T08:50:30.771Z,63072
2019-06-07T08:51:30.918Z,63456
2019-06-07T08:52:31.531Z,63328
2019-06-07T08:53:31.739Z,62816
2019-06-07T08:54:31.372Z,63552
2019-06-07T08:55:32.707Z,64064
2019-06-07T08:56:33.117Z,64256
2019-06-07T08:57:33.420Z,64672
2019-06-07T08:58:32.392Z,64768
2019-06-07T08:59:33.033Z,61920
2019-06-07T09:01:08.814Z,64704
2019-06-07T09:01:32.971Z,64416
2019-06-07T09:02:35.088Z,64352
2019-06-07T09:03:30.579Z,64736
2019-06-07T09:04:30.577Z,65472
2019-06-07T09:05:30.564Z,65024
2019-06-07T09:07:22.416Z,65248
2019-06-07T09:07:32.243Z,64960
2019-06-07T09:08:37.487Z,65472
2019-06-07T09:09:32.202Z,65152
2019-06-07T09:10:32.658Z,65088
2019-06-07T09:11:32.347Z,65312
2019-06-07T09:12:32.213Z,65728
2019-06-07T09:13:33.202Z,65024
2019-06-07T09:14:32.158Z,67008
2019-06-07T09:15:32.157Z,66432
2019-06-07T09:16:32.358Z,66496
2019-06-07T09:17:32.316Z,66944
2019-06-07T09:18:49.970Z,68384
2019-06-07T09:19:32.117Z,68480
2019-06-07T09:20:44.003Z,68000
2019-06-07T09:21:32.147Z,68736
2019-06-07T09:22:32.124Z,69088
2019-06-07T09:23:32.217Z,68096
2019-06-07T09:24:32.139Z,69984
2019-06-07T09:25:32.086Z,69984
2019-06-07T09:26:32.097Z,68896
2019-06-07T09:27:31.849Z,69248
2019-06-07T09:28:32.095Z,69888
2019-06-07T09:29:33.134Z,70048
2019-06-07T09:30:33.800Z,70816
2019-06-07T09:32:05.581Z,71968
2019-06-07T09:32:34.453Z,72128
2019-06-07T09:33:33.867Z,72512
2019-06-07T09:34:34.734Z,73184
2019-06-07T09:35:34.592Z,73504
2019-06-07T09:36:34.650Z,73088
2019-06-07T09:38:30.087Z,69952
2019-06-07T09:38:43.487Z,70368
2019-06-07T09:39:43.834Z,66752
2019-06-07T09:40:43.486Z,72384
2019-06-07T09:41:58.610Z,71328
2019-06-07T09:42:43.006Z,70944
2019-06-07T09:44:29.588Z,72224
2019-06-07T09:44:42.959Z,65184
2019-06-07T09:45:43.648Z,73376
2019-06-07T09:46:40.965Z,63744
2019-06-07T09:47:41.052Z,71552
2019-06-07T09:49:35.710Z,61856
2019-06-07T09:49:45.341Z,60128
2019-06-07T09:50:47.496Z,75712
2019-06-07T09:51:46.444Z,75328
2019-06-07T09:53:25.852Z,66624
2019-06-07T09:53:47.669Z,75520
2019-06-07T09:55:28.219Z,75200
2019-06-07T09:55:47.392Z,74560
2019-06-07T09:56:46.498Z,75776
2019-06-07T09:57:45.438Z,74560
2019-06-07T09:59:12.488Z,75104
2019-06-07T09:59:46.775Z,75072
2019-06-07T10:00:48.859Z,74752
2019-06-07T10:01:45.573Z,73952
2019-06-07T10:02:45.428Z,74176
2019-06-07T10:03:45.455Z,74560
2019-06-07T10:04:45.405Z,75008
2019-06-07T10:05:45.402Z,77056
2019-06-07T10:06:45.673Z,77568
2019-06-07T10:09:42.166Z,76672
2019-06-07T10:10:37.147Z,76128
2019-06-07T10:11:36.849Z,75872
2019-06-07T10:12:36.862Z,76288
2019-06-07T10:13:36.886Z,77472
2019-06-07T10:14:36.628Z,77664
2019-06-07T10:15:36.848Z,77216
2019-06-07T10:16:53.402Z,77472
2019-06-07T10:17:36.834Z,76288
2019-06-07T10:18:36.484Z,73728
2019-06-07T10:19:36.826Z,60864
2019-06-07T10:20:36.832Z,35104
2019-06-07T10:21:36.854Z,20384
2019-06-07T10:22:36.599Z,18564
2019-06-07T10:23:36.877Z,23168
2019-06-07T10:24:36.836Z,43584
2019-06-07T10:25:36.840Z,68512
2019-06-07T10:26:36.857Z,76416
2019-06-07T10:27:36.792Z,77600
2019-06-07T10:28:36.823Z,78816
2019-06-07T10:29:36.785Z,79840
2019-06-07T10:30:36.773Z,79648
2019-06-07T10:31:36.795Z,79712
2019-06-07T10:32:36.793Z,80160
2019-06-07T10:33:36.768Z,80160
2019-06-07T10:34:36.773Z,79552
2019-06-07T10:35:36.881Z,79488
2019-06-07T10:36:36.764Z,80032
2019-06-07T10:37:36.745Z,80000
2019-06-07T10:38:36.746Z,78976
2019-06-07T10:39:52.831Z,78752
2019-06-07T10:40:36.724Z,79904
2019-06-07T10:41:36.735Z,80480
2019-06-07T10:42:36.722Z,80224
2019-06-07T10:43:36.489Z,68320
2019-06-07T10:44:36.727Z,80352
2019-06-07T10:45:36.727Z,82496
2019-06-07T10:46:36.728Z,74272
2019-06-07T10:47:36.711Z,74720
2019-06-07T10:48:36.714Z,45824
2019-06-07T10:49:36.707Z,78880
2019-06-07T10:50:36.717Z,85792
2019-06-07T10:51:36.466Z,77984
2019-06-07T10:52:36.705Z,59552
2019-06-07T10:53:37.448Z,59360
2019-06-07T10:54:37.912Z,85376
2019-06-07T10:55:36.681Z,84864
2019-06-07T10:56:36.713Z,84544
2019-06-07T10:57:36.692Z,84032
2019-06-07T10:58:36.685Z,83808
2019-06-07T10:59:36.675Z,85056
2019-06-07T11:00:36.666Z,86208
2019-06-07T11:01:36.680Z,55264
2019-06-07T11:02:36.675Z,75968
2019-06-07T11:03:36.448Z,87264
2019-06-07T11:04:36.710Z,85888
2019-06-07T11:05:36.698Z,35744
2019-06-07T11:06:36.786Z,72544
2019-06-07T11:07:37.073Z,44160
2019-06-07T11:08:36.750Z,66752
2019-06-07T11:09:36.664Z,36288
2019-06-07T11:10:36.407Z,36032
2019-06-07T11:11:36.654Z,28672
2019-06-07T11:12:36.642Z,24736
2019-06-07T11:13:36.644Z,61440
2019-06-07T11:14:36.637Z,68128
2019-06-07T11:15:36.633Z,50048
2019-06-07T11:16:36.801Z,40384
2019-06-07T11:17:36.664Z,29920
2019-06-07T11:18:36.415Z,81760
2019-06-07T11:19:36.633Z,87648
2019-06-07T11:20:36.372Z,31328
2019-06-07T11:21:36.686Z,61504
2019-06-07T11:22:36.634Z,56640
2019-06-07T11:23:36.352Z,75936
2019-06-07T11:24:36.604Z,42816
2019-06-07T11:25:36.578Z,79200
2019-06-07T11:26:36.621Z,85248
2019-06-07T11:27:36.563Z,75392
2019-06-07T11:28:36.571Z,85440
2019-06-07T11:29:36.558Z,84928
2019-06-07T11:30:36.554Z,74432
2019-06-07T11:31:36.550Z,83200
2019-06-07T11:32:36.551Z,81472
2019-06-07T11:33:36.545Z,80384
2019-06-07T11:34:36.542Z,79456
2019-06-07T11:35:36.298Z,79840
2019-06-07T11:36:36.631Z,81248
2019-06-07T11:37:36.530Z,47872
2019-06-07T11:38:36.530Z,80640
2019-06-07T11:39:36.552Z,66816
2019-06-07T11:40:42.506Z,82656
2019-06-07T11:41:36.526Z,82016
2019-06-07T11:42:36.532Z,80128
2019-06-07T11:43:36.531Z,78944
2019-06-07T11:44:36.519Z,78112
2019-06-07T11:45:36.599Z,77728
2019-06-07T11:46:36.518Z,77152
2019-06-07T11:47:36.566Z,77088
2019-06-07T11:48:36.270Z,77056
2019-06-07T11:49:36.934Z,77440
2019-06-07T11:50:36.497Z,77376
2019-06-07T11:51:36.779Z,76288
2019-06-07T11:52:37.711Z,76256
2019-06-07T11:53:36.506Z,77024
2019-06-07T11:54:36.496Z,77600
2019-06-07T11:55:37.699Z,77600
2019-06-07T11:56:36.553Z,77312
2019-06-07T11:57:36.019Z,76608
2019-06-07T11:58:36.042Z,76128
2019-06-07T11:59:36.198Z,75648
2019-06-07T12:00:39.077Z,75168
2019-06-07T12:01:39.421Z,74560
2019-06-07T12:02:36.543Z,74848
2019-06-07T12:03:36.510Z,74816
2019-06-07T12:04:42.111Z,74400
2019-06-07T12:05:36.506Z,74240
2019-06-07T12:06:36.493Z,74496
2019-06-07T12:07:36.819Z,74176
2019-06-07T12:08:36.362Z,74688
2019-06-07T12:09:36.449Z,74976
2019-06-07T12:10:49.083Z,74784
2019-06-07T12:11:36.517Z,74080
2019-06-07T12:12:36.496Z,74304
2019-06-07T12:13:36.556Z,74816
2019-06-07T12:14:36.544Z,75328
2019-06-07T12:15:36.298Z,74560
2019-06-07T12:16:36.511Z,73984
2019-06-07T12:17:36.607Z,73760
2019-06-07T12:18:36.560Z,75040
2019-06-07T12:19:36.510Z,75136
2019-06-07T12:20:36.288Z,74784
2019-06-07T12:21:36.524Z,74176
2019-06-07T12:22:36.523Z,74464
2019-06-07T12:23:36.530Z,74688
2019-06-07T12:24:36.534Z,74368
2019-06-07T12:25:36.045Z,74784
2019-06-07T12:26:36.532Z,74784
2019-06-07T12:27:36.541Z,74272
2019-06-07T12:28:36.523Z,74176
2019-06-07T12:29:38.688Z,73760
2019-06-07T12:30:36.537Z,73792
2019-06-07T12:31:36.313Z,73920
2019-06-07T12:32:36.540Z,73280
2019-06-07T12:33:36.650Z,72896
2019-06-07T12:34:36.729Z,72768
2019-06-07T12:35:36.876Z,72928
2019-06-07T12:36:36.590Z,74528
2019-06-07T12:37:51.223Z,75232
2019-06-07T12:38:36.928Z,74336
2019-06-07T12:39:36.942Z,75264
2019-06-07T12:40:39.738Z,76032
2019-06-07T12:41:36.498Z,76000
2019-06-07T12:42:36.611Z,75520
2019-06-07T12:43:36.895Z,75168
2019-06-07T12:44:36.846Z,74944
2019-06-07T12:45:51.988Z,74272
2019-06-07T12:46:36.576Z,73568
2019-06-07T12:47:36.587Z,41952
2019-06-07T12:48:36.582Z,74208
2019-06-07T12:49:36.601Z,73600
2019-06-07T12:50:49.638Z,74464
2019-06-07T12:51:36.131Z,73984
2019-06-07T12:52:36.685Z,73536
2019-06-07T12:53:36.859Z,47104
2019-06-07T12:54:36.604Z,68608
2019-06-07T12:55:36.366Z,75424
2019-06-07T12:56:36.652Z,75232
2019-06-07T12:57:36.420Z,74880
2019-06-07T12:58:44.297Z,74080
2019-06-07T12:59:36.612Z,74080
2019-06-07T13:00:36.634Z,74656
2019-06-07T13:01:36.627Z,69696
2019-06-07T13:02:36.625Z,75968
2019-06-07T13:03:36.732Z,76544
2019-06-07T13:04:36.637Z,77664
2019-06-07T13:05:36.631Z,21376
2019-06-07T13:06:36.648Z,20704
2019-06-07T13:07:36.627Z,27552
2019-06-07T13:08:36.645Z,26208
2019-06-07T13:09:38.624Z,31616
2019-06-07T13:10:36.639Z,33792
2019-06-07T13:11:39.639Z,93888
2019-06-07T13:12:36.643Z,78368
2019-06-07T13:13:36.661Z,36672
2019-06-07T13:14:36.649Z,30016
2019-06-07T13:15:36.641Z,30176
2019-06-07T13:16:36.645Z,28864
2019-06-07T13:17:36.657Z,31680
2019-06-07T13:18:36.407Z,49536
2019-06-07T13:19:36.644Z,72768
2019-06-07T13:20:36.406Z,88640
2019-06-07T13:21:38.671Z,76192
2019-06-07T13:22:36.670Z,26880
2019-06-07T13:23:36.698Z,39488
2019-06-07T13:24:36.642Z,37792
2019-06-07T13:25:52.267Z,32736
2019-06-07T13:26:36.646Z,34624
2019-06-07T13:27:40.706Z,48704
2019-06-07T13:28:37.102Z,88928
2019-06-07T13:29:39.247Z,86496